Live aus Altenrhein
LIVE
LSZR 120750Z 28012KT 9999 SCT041 BKN080 03/M01 Q1008 NOSIG RMK F
Zeitraffer heute
2017-12-12 00:14:52
LSZR 112250Z AUTO 18013G23KT 160V230 9999 -RA BKN/// 06/03 Q0993
Zeitraffer gestern
2017-12-11 00:00:00
LSZR 102250Z AUTO 24006KT 190V280 9999 OVC050 04/03 Q0990
Zeitraffer vor 3 Tagen
2017-12-09 00:14:53
LSZR 082250Z AUTO 26008KT 210V290 9999 -SN BKN/// 01/M01 Q1014